Terminal Aerodrome Forecast
Issued by NWS

Home | Current Version | Previous Version | Graphics & Text | Print | Product List | Glossary On
Versions: 1 2 3 4 5 6 7 8 9 10 11 12 13 14 15
000
FTUS43 KICT 040813 AAA
TAFRSL
TAF AMD
KRSL 040813Z 0408/0506 02017G25KT P6SM OVC035
      TEMPO 0409/0413 5SM -SN BR OVC025
     FM041600 01014KT P6SM SCT025 BKN100
     FM042200 01005KT P6SM SCT120=

USA.gov is the U.S. government's official web portal to all federal, state and local government web resources and services.